sensor_id;sensor_type;location;lat;lon;timestamp;P1;durP1;ratioP1;P2;durP2;ratioP2
65656;SDS011;57397;50.096;14.404;2023-02-04T00:01:22;3.50;;;1.35;;
65656;SDS011;57397;50.096;14.404;2023-02-04T00:03:47;2.90;;;1.38;;
65656;SDS011;57397;50.096;14.404;2023-02-04T00:06:13;4.07;;;1.13;;
65656;SDS011;57397;50.096;14.404;2023-02-04T00:08:38;3.53;;;1.13;;
65656;SDS011;57397;50.096;14.404;2023-02-04T00:11:04;3.33;;;1.30;;
65656;SDS011;57397;50.096;14.404;2023-02-04T00:13:29;2.83;;;1.05;;
65656;SDS011;57397;50.096;14.404;2023-02-04T00:15:55;3.53;;;1.23;;
65656;SDS011;57397;50.096;14.404;2023-02-04T00:18:21;2.92;;;1.20;;
65656;SDS011;57397;50.096;14.404;2023-02-04T00:20:46;2.13;;;1.15;;
65656;SDS011;57397;50.096;14.404;2023-02-04T00:23:11;2.40;;;0.85;;
65656;SDS011;57397;50.096;14.404;2023-02-04T00:25:37;2.88;;;0.82;;
65656;SDS011;57397;50.096;14.404;2023-02-04T00:28:02;4.45;;;0.90;;
65656;SDS011;57397;50.096;14.404;2023-02-04T00:30:28;1.83;;;0.63;;
65656;SDS011;57397;50.096;14.404;2023-02-04T00:32:54;2.15;;;0.90;;
65656;SDS011;57397;50.096;14.404;2023-02-04T00:35:21;1.55;;;0.73;;
65656;SDS011;57397;50.096;14.404;2023-02-04T00:37:47;3.38;;;0.95;;
65656;SDS011;57397;50.096;14.404;2023-02-04T00:40:13;2.50;;;0.80;;
65656;SDS011;57397;50.096;14.404;2023-02-04T00:42:38;2.03;;;0.82;;
65656;SDS011;57397;50.096;14.404;2023-02-04T00:45:04;3.80;;;1.15;;
65656;SDS011;57397;50.096;14.404;2023-02-04T00:59:26;2.00;;;0.90;;
65656;SDS011;57397;50.096;14.404;2023-02-04T01:01:51;1.80;;;0.90;;
65656;SDS011;57397;50.096;14.404;2023-02-04T01:04:17;1.98;;;0.77;;
65656;SDS011;57397;50.096;14.404;2023-02-04T01:06:43;2.00;;;0.60;;
65656;SDS011;57397;50.096;14.404;2023-02-04T01:09:09;2.15;;;0.70;;
65656;SDS011;57397;50.096;14.404;2023-02-04T01:11:34;2.72;;;0.90;;
65656;SDS011;57397;50.096;14.404;2023-02-04T01:14:00;2.22;;;0.60;;
65656;SDS011;57397;50.096;14.404;2023-02-04T01:16:26;4.78;;;0.70;;
65656;SDS011;57397;50.096;14.404;2023-02-04T01:18:51;1.75;;;1.00;;
65656;SDS011;57397;50.096;14.404;2023-02-04T01:21:20;1.65;;;0.80;;
65656;SDS011;57397;50.096;14.404;2023-02-04T01:23:48;2.13;;;0.70;;
65656;SDS011;57397;50.096;14.404;2023-02-04T01:26:14;1.48;;;0.60;;
65656;SDS011;57397;50.096;14.404;2023-02-04T01:28:40;2.85;;;0.70;;
65656;SDS011;57397;50.096;14.404;2023-02-04T01:31:06;2.55;;;0.70;;
65656;SDS011;57397;50.096;14.404;2023-02-04T01:33:31;0.57;;;0.50;;
65656;SDS011;57397;50.096;14.404;2023-02-04T01:35:57;2.42;;;0.68;;
65656;SDS011;57397;50.096;14.404;2023-02-04T01:38:22;0.65;;;0.50;;
65656;SDS011;57397;50.096;14.404;2023-02-04T01:40:48;1.83;;;0.50;;
65656;SDS011;57397;50.096;14.404;2023-02-04T01:43:13;1.73;;;0.40;;
65656;SDS011;57397;50.096;14.404;2023-02-04T01:45:39;1.48;;;0.68;;
65656;SDS011;57397;50.096;14.404;2023-02-04T01:48:04;1.65;;;0.52;;
65656;SDS011;57397;50.096;14.404;2023-02-04T01:50:31;1.98;;;0.60;;
65656;SDS011;57397;50.096;14.404;2023-02-04T01:52:57;2.67;;;0.70;;
65656;SDS011;57397;50.096;14.404;2023-02-04T01:55:23;2.00;;;0.60;;
65656;SDS011;57397;50.096;14.404;2023-02-04T01:57:51;1.48;;;0.70;;
65656;SDS011;57397;50.096;14.404;2023-02-04T02:00:30;1.58;;;0.40;;
65656;SDS011;57397;50.096;14.404;2023-02-04T02:02:57;0.98;;;0.55;;
65656;SDS011;57397;50.096;14.404;2023-02-04T02:05:27;0.95;;;0.50;;
65656;SDS011;57397;50.096;14.404;2023-02-04T02:07:56;1.85;;;0.60;;
65656;SDS011;57397;50.096;14.404;2023-02-04T02:10:23;0.80;;;0.40;;
65656;SDS011;57397;50.096;14.404;2023-02-04T02:12:49;1.48;;;0.52;;
65656;SDS011;57397;50.096;14.404;2023-02-04T02:15:15;1.27;;;0.50;;
65656;SDS011;57397;50.096;14.404;2023-02-04T02:17:41;2.03;;;0.50;;
65656;SDS011;57397;50.096;14.404;2023-02-04T02:20:10;1.20;;;0.55;;
65656;SDS011;57397;50.096;14.404;2023-02-04T02:25:20;0.63;;;0.30;;
65656;SDS011;57397;50.096;14.404;2023-02-04T02:27:45;1.00;;;0.50;;
65656;SDS011;57397;50.096;14.404;2023-02-04T02:30:11;1.27;;;0.50;;
65656;SDS011;57397;50.096;14.404;2023-02-04T02:32:39;0.90;;;0.40;;
65656;SDS011;57397;50.096;14.404;2023-02-04T02:35:05;1.38;;;0.50;;
65656;SDS011;57397;50.096;14.404;2023-02-04T02:37:31;0.85;;;0.40;;
65656;SDS011;57397;50.096;14.404;2023-02-04T02:39:56;1.45;;;0.40;;
65656;SDS011;57397;50.096;14.404;2023-02-04T02:42:22;1.20;;;0.40;;
65656;SDS011;57397;50.096;14.404;2023-02-04T02:44:48;0.95;;;0.57;;
65656;SDS011;57397;50.096;14.404;2023-02-04T02:47:14;0.57;;;0.30;;
65656;SDS011;57397;50.096;14.404;2023-02-04T02:49:42;0.30;;;0.30;;
65656;SDS011;57397;50.096;14.404;2023-02-04T02:52:11;1.42;;;0.50;;
65656;SDS011;57397;50.096;14.404;2023-02-04T02:54:37;0.40;;;0.30;;
65656;SDS011;57397;50.096;14.404;2023-02-04T02:57:04;0.52;;;0.32;;
65656;SDS011;57397;50.096;14.404;2023-02-04T02:59:36;0.35;;;0.20;;
65656;SDS011;57397;50.096;14.404;2023-02-04T03:02:02;0.20;;;0.20;;
65656;SDS011;57397;50.096;14.404;2023-02-04T03:04:29;0.35;;;0.30;;
65656;SDS011;57397;50.096;14.404;2023-02-04T03:06:56;0.80;;;0.40;;
65656;SDS011;57397;50.096;14.404;2023-02-04T03:09:22;0.30;;;0.30;;
65656;SDS011;57397;50.096;14.404;2023-02-04T03:11:48;0.35;;;0.30;;
65656;SDS011;57397;50.096;14.404;2023-02-04T03:14:14;0.70;;;0.40;;
65656;SDS011;57397;50.096;14.404;2023-02-04T03:16:39;0.63;;;0.30;;
65656;SDS011;57397;50.096;14.404;2023-02-04T03:19:05;0.50;;;0.40;;
65656;SDS011;57397;50.096;14.404;2023-02-04T03:21:31;0.50;;;0.30;;
65656;SDS011;57397;50.096;14.404;2023-02-04T03:23:57;0.40;;;0.40;;
65656;SDS011;57397;50.096;14.404;2023-02-04T03:26:23;0.52;;;0.40;;
65656;SDS011;57397;50.096;14.404;2023-02-04T03:28:49;0.50;;;0.40;;
65656;SDS011;57397;50.096;14.404;2023-02-04T03:31:15;1.23;;;0.45;;
65656;SDS011;57397;50.096;14.404;2023-02-04T03:33:40;0.88;;;0.43;;
65656;SDS011;57397;50.096;14.404;2023-02-04T03:36:07;0.40;;;0.40;;
65656;SDS011;57397;50.096;14.404;2023-02-04T03:38:33;0.50;;;0.30;;
65656;SDS011;57397;50.096;14.404;2023-02-04T03:40:58;0.40;;;0.40;;
65656;SDS011;57397;50.096;14.404;2023-02-04T03:43:24;0.35;;;0.32;;
65656;SDS011;57397;50.096;14.404;2023-02-04T03:45:50;0.50;;;0.40;;
65656;SDS011;57397;50.096;14.404;2023-02-04T03:48:15;0.57;;;0.47;;
65656;SDS011;57397;50.096;14.404;2023-02-04T03:50:41;0.35;;;0.30;;
65656;SDS011;57397;50.096;14.404;2023-02-04T03:53:06;0.65;;;0.40;;
65656;SDS011;57397;50.096;14.404;2023-02-04T03:55:32;0.50;;;0.40;;
65656;SDS011;57397;50.096;14.404;2023-02-04T03:57:58;0.50;;;0.40;;
65656;SDS011;57397;50.096;14.404;2023-02-04T04:00:23;0.35;;;0.30;;
65656;SDS011;57397;50.096;14.404;2023-02-04T04:02:49;0.68;;;0.40;;
65656;SDS011;57397;50.096;14.404;2023-02-04T04:05:15;0.30;;;0.30;;
65656;SDS011;57397;50.096;14.404;2023-02-04T04:07:41;0.43;;;0.30;;
65656;SDS011;57397;50.096;14.404;2023-02-04T04:10:06;0.45;;;0.40;;
65656;SDS011;57397;50.096;14.404;2023-02-04T04:12:32;1.30;;;0.40;;
65656;SDS011;57397;50.096;14.404;2023-02-04T04:14:57;1.13;;;0.40;;
65656;SDS011;57397;50.096;14.404;2023-02-04T04:17:23;0.47;;;0.32;;
65656;SDS011;57397;50.096;14.404;2023-02-04T04:19:48;0.70;;;0.40;;
65656;SDS011;57397;50.096;14.404;2023-02-04T04:22:14;0.65;;;0.40;;
65656;SDS011;57397;50.096;14.404;2023-02-04T04:24:39;0.40;;;0.30;;
65656;SDS011;57397;50.096;14.404;2023-02-04T04:27:05;0.77;;;0.30;;
65656;SDS011;57397;50.096;14.404;2023-02-04T04:29:31;0.77;;;0.50;;
65656;SDS011;57397;50.096;14.404;2023-02-04T04:31:56;0.75;;;0.43;;
65656;SDS011;57397;50.096;14.404;2023-02-04T04:34:22;0.55;;;0.50;;
65656;SDS011;57397;50.096;14.404;2023-02-04T04:36:47;0.90;;;0.40;;
65656;SDS011;57397;50.096;14.404;2023-02-04T04:39:13;0.40;;;0.30;;
65656;SDS011;57397;50.096;14.404;2023-02-04T04:41:38;0.77;;;0.57;;
65656;SDS011;57397;50.096;14.404;2023-02-04T04:44:04;0.45;;;0.40;;
65656;SDS011;57397;50.096;14.404;2023-02-04T04:46:29;0.68;;;0.50;;
65656;SDS011;57397;50.096;14.404;2023-02-04T04:48:55;0.40;;;0.40;;
65656;SDS011;57397;50.096;14.404;2023-02-04T04:51:20;0.40;;;0.40;;
65656;SDS011;57397;50.096;14.404;2023-02-04T04:53:46;1.08;;;0.50;;
65656;SDS011;57397;50.096;14.404;2023-02-04T04:56:11;0.60;;;0.50;;
65656;SDS011;57397;50.096;14.404;2023-02-04T04:58:37;1.02;;;0.57;;
65656;SDS011;57397;50.096;14.404;2023-02-04T05:01:02;0.80;;;0.60;;
65656;SDS011;57397;50.096;14.404;2023-02-04T05:03:28;1.00;;;0.60;;
65656;SDS011;57397;50.096;14.404;2023-02-04T05:05:54;0.90;;;0.70;;
65656;SDS011;57397;50.096;14.404;2023-02-04T05:08:19;1.30;;;0.70;;
65656;SDS011;57397;50.096;14.404;2023-02-04T05:10:45;1.60;;;0.80;;
65656;SDS011;57397;50.096;14.404;2023-02-04T05:13:11;2.55;;;1.42;;
65656;SDS011;57397;50.096;14.404;2023-02-04T05:15:36;3.85;;;1.75;;
65656;SDS011;57397;50.096;14.404;2023-02-04T05:18:02;6.35;;;2.70;;
65656;SDS011;57397;50.096;14.404;2023-02-04T05:20:28;7.25;;;3.05;;
65656;SDS011;57397;50.096;14.404;2023-02-04T05:22:53;7.63;;;3.13;;
65656;SDS011;57397;50.096;14.404;2023-02-04T05:25:25;7.45;;;2.97;;
65656;SDS011;57397;50.096;14.404;2023-02-04T05:27:51;6.78;;;2.90;;
65656;SDS011;57397;50.096;14.404;2023-02-04T05:30:17;5.30;;;2.40;;
65656;SDS011;57397;50.096;14.404;2023-02-04T05:32:42;4.72;;;2.42;;
65656;SDS011;57397;50.096;14.404;2023-02-04T05:35:08;6.05;;;2.88;;
65656;SDS011;57397;50.096;14.404;2023-02-04T05:37:34;5.85;;;2.53;;
65656;SDS011;57397;50.096;14.404;2023-02-04T05:39:59;5.65;;;2.67;;
65656;SDS011;57397;50.096;14.404;2023-02-04T05:42:25;5.00;;;2.50;;
65656;SDS011;57397;50.096;14.404;2023-02-04T05:44:50;3.70;;;2.40;;
65656;SDS011;57397;50.096;14.404;2023-02-04T05:47:15;4.88;;;2.72;;
65656;SDS011;57397;50.096;14.404;2023-02-04T05:49:41;5.57;;;2.63;;
65656;SDS011;57397;50.096;14.404;2023-02-04T05:52:07;4.45;;;2.17;;
65656;SDS011;57397;50.096;14.404;2023-02-04T05:54:32;5.03;;;2.53;;
65656;SDS011;57397;50.096;14.404;2023-02-04T05:56:58;3.22;;;2.03;;
65656;SDS011;57397;50.096;14.404;2023-02-04T05:59:23;4.95;;;2.45;;
65656;SDS011;57397;50.096;14.404;2023-02-04T06:01:49;4.65;;;2.42;;
65656;SDS011;57397;50.096;14.404;2023-02-04T06:04:14;3.47;;;2.03;;
65656;SDS011;57397;50.096;14.404;2023-02-04T06:06:41;4.40;;;2.20;;
65656;SDS011;57397;50.096;14.404;2023-02-04T06:09:07;3.42;;;2.00;;
65656;SDS011;57397;50.096;14.404;2023-02-04T06:11:32;3.58;;;1.88;;
65656;SDS011;57397;50.096;14.404;2023-02-04T06:13:58;3.22;;;1.80;;
65656;SDS011;57397;50.096;14.404;2023-02-04T06:16:23;3.95;;;2.10;;
65656;SDS011;57397;50.096;14.404;2023-02-04T06:18:49;3.55;;;1.90;;
65656;SDS011;57397;50.096;14.404;2023-02-04T06:21:14;3.33;;;1.95;;
65656;SDS011;57397;50.096;14.404;2023-02-04T06:23:40;2.72;;;1.73;;
65656;SDS011;57397;50.096;14.404;2023-02-04T06:26:05;4.20;;;2.17;;
65656;SDS011;57397;50.096;14.404;2023-02-04T06:28:31;2.88;;;1.65;;
65656;SDS011;57397;50.096;14.404;2023-02-04T06:30:56;2.90;;;1.80;;
65656;SDS011;57397;50.096;14.404;2023-02-04T06:33:22;2.65;;;1.55;;
65656;SDS011;57397;50.096;14.404;2023-02-04T06:35:48;2.88;;;1.60;;
65656;SDS011;57397;50.096;14.404;2023-02-04T06:38:14;2.60;;;1.70;;
65656;SDS011;57397;50.096;14.404;2023-02-04T06:40:39;4.20;;;1.90;;
65656;SDS011;57397;50.096;14.404;2023-02-04T06:43:05;3.30;;;1.83;;
65656;SDS011;57397;50.096;14.404;2023-02-04T06:45:30;4.10;;;2.05;;
65656;SDS011;57397;50.096;14.404;2023-02-04T06:47:56;4.15;;;2.22;;
65656;SDS011;57397;50.096;14.404;2023-02-04T06:50:21;3.22;;;2.05;;
65656;SDS011;57397;50.096;14.404;2023-02-04T06:52:47;3.88;;;2.00;;
65656;SDS011;57397;50.096;14.404;2023-02-04T06:55:13;3.90;;;2.10;;
65656;SDS011;57397;50.096;14.404;2023-02-04T06:57:39;4.70;;;2.40;;
65656;SDS011;57397;50.096;14.404;2023-02-04T07:00:06;3.17;;;1.92;;
65656;SDS011;57397;50.096;14.404;2023-02-04T07:02:33;3.35;;;2.10;;
65656;SDS011;57397;50.096;14.404;2023-02-04T07:04:59;3.00;;;1.63;;
65656;SDS011;57397;50.096;14.404;2023-02-04T07:07:25;3.65;;;1.80;;
65656;SDS011;57397;50.096;14.404;2023-02-04T07:09:51;2.95;;;2.05;;
65656;SDS011;57397;50.096;14.404;2023-02-04T07:12:17;2.85;;;1.85;;
65656;SDS011;57397;50.096;14.404;2023-02-04T07:14:43;2.38;;;1.63;;
65656;SDS011;57397;50.096;14.404;2023-02-04T07:17:08;2.95;;;1.75;;
65656;SDS011;57397;50.096;14.404;2023-02-04T07:19:34;3.58;;;1.88;;
65656;SDS011;57397;50.096;14.404;2023-02-04T07:22:00;2.95;;;1.90;;
65656;SDS011;57397;50.096;14.404;2023-02-04T07:24:26;2.67;;;1.65;;
65656;SDS011;57397;50.096;14.404;2023-02-04T07:26:52;2.42;;;1.80;;
65656;SDS011;57397;50.096;14.404;2023-02-04T07:29:17;2.90;;;1.70;;
65656;SDS011;57397;50.096;14.404;2023-02-04T07:31:43;3.58;;;1.70;;
65656;SDS011;57397;50.096;14.404;2023-02-04T07:34:11;2.30;;;1.58;;
65656;SDS011;57397;50.096;14.404;2023-02-04T07:36:39;2.85;;;1.63;;
65656;SDS011;57397;50.096;14.404;2023-02-04T07:39:05;2.63;;;1.65;;
65656;SDS011;57397;50.096;14.404;2023-02-04T07:41:31;2.45;;;1.60;;
65656;SDS011;57397;50.096;14.404;2023-02-04T07:43:57;2.53;;;1.63;;
65656;SDS011;57397;50.096;14.404;2023-02-04T07:46:22;2.55;;;1.40;;
65656;SDS011;57397;50.096;14.404;2023-02-04T07:48:49;2.67;;;1.70;;
65656;SDS011;57397;50.096;14.404;2023-02-04T07:51:14;2.53;;;1.60;;
65656;SDS011;57397;50.096;14.404;2023-02-04T07:53:40;2.83;;;1.50;;
65656;SDS011;57397;50.096;14.404;2023-02-04T07:56:05;2.60;;;1.73;;
65656;SDS011;57397;50.096;14.404;2023-02-04T07:58:31;2.17;;;1.50;;
65656;SDS011;57397;50.096;14.404;2023-02-04T08:00:56;2.42;;;1.67;;
65656;SDS011;57397;50.096;14.404;2023-02-04T08:03:22;2.20;;;1.60;;
65656;SDS011;57397;50.096;14.404;2023-02-04T08:05:47;2.58;;;1.50;;
65656;SDS011;57397;50.096;14.404;2023-02-04T08:08:13;2.20;;;1.60;;
65656;SDS011;57397;50.096;14.404;2023-02-04T08:10:39;2.72;;;1.60;;
65656;SDS011;57397;50.096;14.404;2023-02-04T08:13:05;2.22;;;1.60;;
65656;SDS011;57397;50.096;14.404;2023-02-04T08:15:30;3.38;;;1.95;;
65656;SDS011;57397;50.096;14.404;2023-02-04T08:17:56;2.58;;;1.60;;
65656;SDS011;57397;50.096;14.404;2023-02-04T08:20:21;4.65;;;2.30;;
65656;SDS011;57397;50.096;14.404;2023-02-04T08:22:47;3.47;;;1.98;;
65656;SDS011;57397;50.096;14.404;2023-02-04T08:25:12;3.80;;;1.90;;
65656;SDS011;57397;50.096;14.404;2023-02-04T08:27:38;3.75;;;2.28;;
65656;SDS011;57397;50.096;14.404;2023-02-04T08:30:04;2.33;;;1.70;;
65656;SDS011;57397;50.096;14.404;2023-02-04T08:32:30;2.40;;;1.73;;
65656;SDS011;57397;50.096;14.404;2023-02-04T08:34:56;2.83;;;1.60;;
65656;SDS011;57397;50.096;14.404;2023-02-04T08:37:22;3.13;;;1.90;;
65656;SDS011;57397;50.096;14.404;2023-02-04T08:39:48;2.75;;;1.80;;
65656;SDS011;57397;50.096;14.404;2023-02-04T08:42:14;2.45;;;1.80;;
65656;SDS011;57397;50.096;14.404;2023-02-04T08:44:40;2.45;;;1.63;;
65656;SDS011;57397;50.096;14.404;2023-02-04T08:47:06;2.42;;;1.60;;
65656;SDS011;57397;50.096;14.404;2023-02-04T08:49:32;2.70;;;1.50;;
65656;SDS011;57397;50.096;14.404;2023-02-04T08:51:57;2.85;;;1.55;;
65656;SDS011;57397;50.096;14.404;2023-02-04T08:54:23;2.15;;;1.55;;
65656;SDS011;57397;50.096;14.404;2023-02-04T08:56:50;2.50;;;1.48;;
65656;SDS011;57397;50.096;14.404;2023-02-04T08:59:17;2.05;;;1.60;;
65656;SDS011;57397;50.096;14.404;2023-02-04T09:01:42;1.88;;;1.33;;
65656;SDS011;57397;50.096;14.404;2023-02-04T09:04:13;2.30;;;1.40;;
65656;SDS011;57397;50.096;14.404;2023-02-04T09:06:39;2.00;;;1.30;;
65656;SDS011;57397;50.096;14.404;2023-02-04T09:09:04;1.80;;;1.30;;
65656;SDS011;57397;50.096;14.404;2023-02-04T09:11:30;2.22;;;1.30;;
65656;SDS011;57397;50.096;14.404;2023-02-04T09:13:56;2.28;;;1.45;;
65656;SDS011;57397;50.096;14.404;2023-02-04T09:16:22;1.85;;;1.40;;
65656;SDS011;57397;50.096;14.404;2023-02-04T09:18:47;1.60;;;1.38;;
65656;SDS011;57397;50.096;14.404;2023-02-04T09:21:13;1.92;;;1.42;;
65656;SDS011;57397;50.096;14.404;2023-02-04T09:23:39;2.13;;;1.33;;
65656;SDS011;57397;50.096;14.404;2023-02-04T09:26:04;2.05;;;1.30;;
65656;SDS011;57397;50.096;14.404;2023-02-04T09:28:30;1.90;;;1.17;;
65656;SDS011;57397;50.096;14.404;2023-02-04T09:30:57;1.52;;;1.10;;
65656;SDS011;57397;50.096;14.404;2023-02-04T09:33:22;1.98;;;1.35;;
65656;SDS011;57397;50.096;14.404;2023-02-04T09:35:48;1.48;;;1.25;;
65656;SDS011;57397;50.096;14.404;2023-02-04T09:38:14;1.30;;;1.20;;
65656;SDS011;57397;50.096;14.404;2023-02-04T09:40:41;1.30;;;1.00;;
65656;SDS011;57397;50.096;14.404;2023-02-04T09:43:12;2.42;;;1.20;;
65656;SDS011;57397;50.096;14.404;2023-02-04T09:45:45;1.40;;;1.10;;
65656;SDS011;57397;50.096;14.404;2023-02-04T09:48:13;1.55;;;1.10;;
65656;SDS011;57397;50.096;14.404;2023-02-04T09:50:39;1.23;;;0.98;;
65656;SDS011;57397;50.096;14.404;2023-02-04T09:53:04;1.88;;;1.20;;
65656;SDS011;57397;50.096;14.404;2023-02-04T09:55:32;1.70;;;1.27;;
65656;SDS011;57397;50.096;14.404;2023-02-04T09:58:20;2.20;;;1.30;;
65656;SDS011;57397;50.096;14.404;2023-02-04T10:00:47;1.90;;;1.10;;
65656;SDS011;57397;50.096;14.404;2023-02-04T10:03:17;1.30;;;1.20;;
65656;SDS011;57397;50.096;14.404;2023-02-04T10:05:45;2.00;;;1.30;;
65656;SDS011;57397;50.096;14.404;2023-02-04T10:08:16;2.10;;;1.60;;
65656;SDS011;57397;50.096;14.404;2023-02-04T10:13:14;2.53;;;1.85;;
65656;SDS011;57397;50.096;14.404;2023-02-04T10:15:43;2.75;;;1.73;;
65656;SDS011;57397;50.096;14.404;2023-02-04T10:18:10;3.03;;;1.75;;
65656;SDS011;57397;50.096;14.404;2023-02-04T10:20:37;2.53;;;1.67;;
65656;SDS011;57397;50.096;14.404;2023-02-04T10:23:03;2.95;;;1.80;;
65656;SDS011;57397;50.096;14.404;2023-02-04T10:25:28;2.80;;;1.88;;
65656;SDS011;57397;50.096;14.404;2023-02-04T10:27:57;3.63;;;1.75;;
65656;SDS011;57397;50.096;14.404;2023-02-04T10:30:25;3.83;;;1.90;;
65656;SDS011;57397;50.096;14.404;2023-02-04T10:32:59;3.40;;;2.10;;
65656;SDS011;57397;50.096;14.404;2023-02-04T10:35:44;3.25;;;2.10;;
65656;SDS011;57397;50.096;14.404;2023-02-04T10:38:11;3.03;;;1.80;;
65656;SDS011;57397;50.096;14.404;2023-02-04T10:40:37;4.85;;;2.10;;
65656;SDS011;57397;50.096;14.404;2023-02-04T10:43:07;3.65;;;2.05;;
65656;SDS011;57397;50.096;14.404;2023-02-04T10:45:58;3.22;;;1.95;;
65656;SDS011;57397;50.096;14.404;2023-02-04T10:48:26;3.42;;;1.92;;
65656;SDS011;57397;50.096;14.404;2023-02-04T10:50:54;3.78;;;1.70;;
65656;SDS011;57397;50.096;14.404;2023-02-04T10:53:21;2.70;;;1.65;;
65656;SDS011;57397;50.096;14.404;2023-02-04T10:56:15;2.97;;;1.83;;
65656;SDS011;57397;50.096;14.404;2023-02-04T10:58:43;2.53;;;1.63;;
65656;SDS011;57397;50.096;14.404;2023-02-04T11:01:12;2.75;;;1.80;;
65656;SDS011;57397;50.096;14.404;2023-02-04T11:03:40;2.45;;;1.63;;
65656;SDS011;57397;50.096;14.404;2023-02-04T11:06:19;2.97;;;1.65;;
65656;SDS011;57397;50.096;14.404;2023-02-04T11:08:46;2.35;;;1.67;;
65656;SDS011;57397;50.096;14.404;2023-02-04T11:11:17;2.13;;;1.40;;
65656;SDS011;57397;50.096;14.404;2023-02-04T11:18:51;2.35;;;1.40;;
65656;SDS011;57397;50.096;14.404;2023-02-04T11:26:44;2.40;;;1.40;;
65656;SDS011;57397;50.096;14.404;2023-02-04T11:39:18;1.63;;;1.10;;
65656;SDS011;57397;50.096;14.404;2023-02-04T11:41:45;1.40;;;1.00;;
65656;SDS011;57397;50.096;14.404;2023-02-04T11:44:17;2.17;;;1.25;;
65656;SDS011;57397;50.096;14.404;2023-02-04T11:46:48;1.67;;;1.15;;
65656;SDS011;57397;50.096;14.404;2023-02-04T11:49:22;2.05;;;1.40;;
65656;SDS011;57397;50.096;14.404;2023-02-04T11:51:50;1.65;;;1.10;;
65656;SDS011;57397;50.096;14.404;2023-02-04T11:54:16;2.03;;;1.13;;
65656;SDS011;57397;50.096;14.404;2023-02-04T11:56:47;1.65;;;1.13;;
65656;SDS011;57397;50.096;14.404;2023-02-04T11:59:17;1.10;;;1.00;;
65656;SDS011;57397;50.096;14.404;2023-02-04T12:01:45;2.05;;;0.98;;
65656;SDS011;57397;50.096;14.404;2023-02-04T12:04:21;1.40;;;0.95;;
65656;SDS011;57397;50.096;14.404;2023-02-04T12:07:02;1.70;;;1.00;;
65656;SDS011;57397;50.096;14.404;2023-02-04T12:09:30;2.08;;;1.10;;
65656;SDS011;57397;50.096;14.404;2023-02-04T12:12:01;1.88;;;1.00;;
65656;SDS011;57397;50.096;14.404;2023-02-04T12:14:30;1.83;;;1.15;;
65656;SDS011;57397;50.096;14.404;2023-02-04T12:16:57;2.05;;;1.20;;
65656;SDS011;57397;50.096;14.404;2023-02-04T12:19:23;1.73;;;1.00;;
65656;SDS011;57397;50.096;14.404;2023-02-04T12:21:48;1.77;;;1.10;;
65656;SDS011;57397;50.096;14.404;2023-02-04T12:24:14;2.10;;;1.20;;
65656;SDS011;57397;50.096;14.404;2023-02-04T12:26:41;2.30;;;1.00;;
65656;SDS011;57397;50.096;14.404;2023-02-04T12:29:07;1.45;;;1.00;;
65656;SDS011;57397;50.096;14.404;2023-02-04T12:31:33;1.40;;;1.20;;
65656;SDS011;57397;50.096;14.404;2023-02-04T12:33:59;1.80;;;1.30;;
65656;SDS011;57397;50.096;14.404;2023-02-04T12:36:25;1.75;;;1.20;;
65656;SDS011;57397;50.096;14.404;2023-02-04T12:38:52;2.03;;;1.42;;
65656;SDS011;57397;50.096;14.404;2023-02-04T12:41:18;2.13;;;1.23;;
65656;SDS011;57397;50.096;14.404;2023-02-04T12:43:44;2.30;;;1.30;;
65656;SDS011;57397;50.096;14.404;2023-02-04T12:46:10;2.60;;;1.60;;
65656;SDS011;57397;50.096;14.404;2023-02-04T12:48:35;2.60;;;1.55;;
65656;SDS011;57397;50.096;14.404;2023-02-04T12:51:05;1.98;;;1.38;;
65656;SDS011;57397;50.096;14.404;2023-02-04T12:53:31;3.00;;;1.70;;
65656;SDS011;57397;50.096;14.404;2023-02-04T12:55:56;2.40;;;1.67;;
65656;SDS011;57397;50.096;14.404;2023-02-04T12:58:22;2.35;;;1.60;;
65656;SDS011;57397;50.096;14.404;2023-02-04T13:00:47;2.83;;;1.63;;
65656;SDS011;57397;50.096;14.404;2023-02-04T13:03:13;2.13;;;1.50;;
65656;SDS011;57397;50.096;14.404;2023-02-04T13:05:38;2.05;;;1.58;;
65656;SDS011;57397;50.096;14.404;2023-02-04T13:08:04;2.10;;;1.63;;
65656;SDS011;57397;50.096;14.404;2023-02-04T13:10:29;2.60;;;1.50;;
65656;SDS011;57397;50.096;14.404;2023-02-04T13:12:55;2.45;;;1.58;;
65656;SDS011;57397;50.096;14.404;2023-02-04T13:15:20;2.70;;;1.73;;
65656;SDS011;57397;50.096;14.404;2023-02-04T13:17:46;2.58;;;1.70;;
65656;SDS011;57397;50.096;14.404;2023-02-04T13:20:12;1.90;;;1.40;;
65656;SDS011;57397;50.096;14.404;2023-02-04T13:22:37;2.55;;;1.60;;
65656;SDS011;57397;50.096;14.404;2023-02-04T13:25:03;2.25;;;1.33;;
65656;SDS011;57397;50.096;14.404;2023-02-04T13:27:31;2.35;;;1.50;;
65656;SDS011;57397;50.096;14.404;2023-02-04T13:29:56;2.83;;;1.50;;
65656;SDS011;57397;50.096;14.404;2023-02-04T13:32:22;2.10;;;1.42;;
65656;SDS011;57397;50.096;14.404;2023-02-04T13:34:48;2.28;;;1.55;;
65656;SDS011;57397;50.096;14.404;2023-02-04T13:37:13;2.17;;;1.40;;
65656;SDS011;57397;50.096;14.404;2023-02-04T13:39:39;2.25;;;1.48;;
65656;SDS011;57397;50.096;14.404;2023-02-04T13:42:04;2.03;;;1.38;;
65656;SDS011;57397;50.096;14.404;2023-02-04T13:44:30;1.80;;;1.35;;
65656;SDS011;57397;50.096;14.404;2023-02-04T13:46:55;2.30;;;1.70;;
65656;SDS011;57397;50.096;14.404;2023-02-04T13:49:21;1.77;;;1.27;;
65656;SDS011;57397;50.096;14.404;2023-02-04T13:51:46;2.50;;;1.20;;
65656;SDS011;57397;50.096;14.404;2023-02-04T13:54:12;1.73;;;1.30;;
65656;SDS011;57397;50.096;14.404;2023-02-04T13:56:37;2.00;;;1.20;;
65656;SDS011;57397;50.096;14.404;2023-02-04T13:59:05;2.55;;;1.50;;
65656;SDS011;57397;50.096;14.404;2023-02-04T14:01:30;1.73;;;1.20;;
65656;SDS011;57397;50.096;14.404;2023-02-04T14:03:56;2.20;;;1.30;;
65656;SDS011;57397;50.096;14.404;2023-02-04T14:06:21;2.60;;;1.40;;
65656;SDS011;57397;50.096;14.404;2023-02-04T14:08:48;1.90;;;1.15;;
65656;SDS011;57397;50.096;14.404;2023-02-04T14:11:13;3.15;;;1.25;;
65656;SDS011;57397;50.096;14.404;2023-02-04T14:13:39;2.05;;;1.25;;
65656;SDS011;57397;50.096;14.404;2023-02-04T14:16:04;2.03;;;1.33;;
65656;SDS011;57397;50.096;14.404;2023-02-04T14:18:31;1.92;;;1.20;;
65656;SDS011;57397;50.096;14.404;2023-02-04T14:20:57;3.42;;;1.50;;
65656;SDS011;57397;50.096;14.404;2023-02-04T14:23:22;1.60;;;1.17;;
65656;SDS011;57397;50.096;14.404;2023-02-04T14:25:48;1.90;;;1.02;;
65656;SDS011;57397;50.096;14.404;2023-02-04T14:28:13;1.67;;;1.15;;
65656;SDS011;57397;50.096;14.404;2023-02-04T14:30:39;2.42;;;1.20;;
65656;SDS011;57397;50.096;14.404;2023-02-04T14:33:05;2.60;;;1.40;;
65656;SDS011;57397;50.096;14.404;2023-02-04T14:35:33;3.80;;;1.60;;
65656;SDS011;57397;50.096;14.404;2023-02-04T14:37:58;3.35;;;1.65;;
65656;SDS011;57397;50.096;14.404;2023-02-04T14:40:24;2.75;;;1.70;;
65656;SDS011;57397;50.096;14.404;2023-02-04T14:42:50;3.42;;;1.75;;
65656;SDS011;57397;50.096;14.404;2023-02-04T14:45:15;2.70;;;1.63;;
65656;SDS011;57397;50.096;14.404;2023-02-04T14:47:41;3.53;;;2.08;;
65656;SDS011;57397;50.096;14.404;2023-02-04T14:50:09;3.33;;;1.60;;
65656;SDS011;57397;50.096;14.404;2023-02-04T14:52:39;3.40;;;1.77;;
65656;SDS011;57397;50.096;14.404;2023-02-04T14:55:05;2.42;;;1.40;;
65656;SDS011;57397;50.096;14.404;2023-02-04T14:57:30;2.83;;;1.58;;
65656;SDS011;57397;50.096;14.404;2023-02-04T14:59:57;2.58;;;1.58;;
65656;SDS011;57397;50.096;14.404;2023-02-04T15:02:23;2.60;;;1.75;;
65656;SDS011;57397;50.096;14.404;2023-02-04T15:04:50;1.83;;;1.20;;
65656;SDS011;57397;50.096;14.404;2023-02-04T15:07:16;2.17;;;1.25;;